sensor_id;sensor_type;location;lat;lon;timestamp;P1;P2;P0
70436;PMS5003;57877;39.750;-104.894;2023-12-22T00:02:15;0;0;
70436;PMS5003;57877;39.750;-104.894;2023-12-22T00:04:40;0;0;
70436;PMS5003;57877;39.750;-104.894;2023-12-22T00:07:05;0;0;
70436;PMS5003;57877;39.750;-104.894;2023-12-22T00:09:30;0;0;
70436;PMS5003;57877;39.750;-104.894;2023-12-22T00:11:55;0;0;
70436;PMS5003;57877;39.750;-104.894;2023-12-22T00:14:20;0;0;
70436;PMS5003;57877;39.750;-104.894;2023-12-22T00:16:45;0;0;
70436;PMS5003;57877;39.750;-104.894;2023-12-22T00:19:10;0;0;
70436;PMS5003;57877;39.750;-104.894;2023-12-22T00:21:35;0;0;
70436;PMS5003;57877;39.750;-104.894;2023-12-22T00:24:00;0;0;
70436;PMS5003;57877;39.750;-104.894;2023-12-22T00:26:25;0;0;
70436;PMS5003;57877;39.750;-104.894;2023-12-22T00:28:50;0;0;
70436;PMS5003;57877;39.750;-104.894;2023-12-22T00:31:16;0;0;
70436;PMS5003;57877;39.750;-104.894;2023-12-22T00:33:41;0;0;
70436;PMS5003;57877;39.750;-104.894;2023-12-22T00:36:06;0;0;
70436;PMS5003;57877;39.750;-104.894;2023-12-22T00:38:31;0;0;
70436;PMS5003;57877;39.750;-104.894;2023-12-22T00:40:56;0;0;
70436;PMS5003;57877;39.750;-104.894;2023-12-22T00:43:21;0;0;
70436;PMS5003;57877;39.750;-104.894;2023-12-22T00:45:46;0;0;
70436;PMS5003;57877;39.750;-104.894;2023-12-22T00:48:11;0;0;
70436;PMS5003;57877;39.750;-104.894;2023-12-22T00:50:36;0;0;
70436;PMS5003;57877;39.750;-104.894;2023-12-22T00:53:01;0;0;
70436;PMS5003;57877;39.750;-104.894;2023-12-22T00:55:26;0;0;
70436;PMS5003;57877;39.750;-104.894;2023-12-22T00:57:51;0;0;
70436;PMS5003;57877;39.750;-104.894;2023-12-22T01:00:16;0;0;
70436;PMS5003;57877;39.750;-104.894;2023-12-22T01:02:41;0;0;
70436;PMS5003;57877;39.750;-104.894;2023-12-22T01:05:06;0;0;
70436;PMS5003;57877;39.750;-104.894;2023-12-22T01:07:31;0;0;
70436;PMS5003;57877;39.750;-104.894;2023-12-22T01:09:56;0;0;
70436;PMS5003;57877;39.750;-104.894;2023-12-22T01:12:21;0;0;
70436;PMS5003;57877;39.750;-104.894;2023-12-22T01:14:46;0;0;
70436;PMS5003;57877;39.750;-104.894;2023-12-22T01:17:11;0;0;
70436;PMS5003;57877;39.750;-104.894;2023-12-22T01:19:36;0;0;
70436;PMS5003;57877;39.750;-104.894;2023-12-22T01:22:01;0;0;
70436;PMS5003;57877;39.750;-104.894;2023-12-22T01:24:26;0;0;
70436;PMS5003;57877;39.750;-104.894;2023-12-22T01:26:51;0;0;
70436;PMS5003;57877;39.750;-104.894;2023-12-22T01:29:16;0;0;
70436;PMS5003;57877;39.750;-104.894;2023-12-22T01:31:41;0;0;
70436;PMS5003;57877;39.750;-104.894;2023-12-22T01:34:06;0;0;
70436;PMS5003;57877;39.750;-104.894;2023-12-22T01:36:32;0;0;
70436;PMS5003;57877;39.750;-104.894;2023-12-22T01:38:56;0;0;
70436;PMS5003;57877;39.750;-104.894;2023-12-22T01:41:22;0;0;
70436;PMS5003;57877;39.750;-104.894;2023-12-22T01:43:46;0;0;
70436;PMS5003;57877;39.750;-104.894;2023-12-22T01:46:12;0;0;
70436;PMS5003;57877;39.750;-104.894;2023-12-22T01:48:37;0;0;
70436;PMS5003;57877;39.750;-104.894;2023-12-22T01:51:02;0;0;
70436;PMS5003;57877;39.750;-104.894;2023-12-22T01:53:27;1;0;
70436;PMS5003;57877;39.750;-104.894;2023-12-22T01:55:52;1;1;
70436;PMS5003;57877;39.750;-104.894;2023-12-22T01:58:17;2;0;
70436;PMS5003;57877;39.750;-104.894;2023-12-22T02:00:42;2;1;
70436;PMS5003;57877;39.750;-104.894;2023-12-22T02:03:07;1;0;
70436;PMS5003;57877;39.750;-104.894;2023-12-22T02:05:32;2;2;
70436;PMS5003;57877;39.750;-104.894;2023-12-22T02:07:57;2;2;
70436;PMS5003;57877;39.750;-104.894;2023-12-22T02:10:22;4;4;
70436;PMS5003;57877;39.750;-104.894;2023-12-22T02:12:47;1;1;
70436;PMS5003;57877;39.750;-104.894;2023-12-22T02:15:12;9;8;
70436;PMS5003;57877;39.750;-104.894;2023-12-22T02:17:43;6;6;
70436;PMS5003;57877;39.750;-104.894;2023-12-22T02:20:04;3;2;
70436;PMS5003;57877;39.750;-104.894;2023-12-22T02:22:29;3;3;
70436;PMS5003;57877;39.750;-104.894;2023-12-22T02:24:53;4;3;
70436;PMS5003;57877;39.750;-104.894;2023-12-22T02:27:23;9;8;
70436;PMS5003;57877;39.750;-104.894;2023-12-22T02:29:46;6;5;
70436;PMS5003;57877;39.750;-104.894;2023-12-22T02:32:10;7;7;
70436;PMS5003;57877;39.750;-104.894;2023-12-22T02:34:34;7;7;
70436;PMS5003;57877;39.750;-104.894;2023-12-22T02:36:58;8;8;
70436;PMS5003;57877;39.750;-104.894;2023-12-22T02:39:24;16;14;
70436;PMS5003;57877;39.750;-104.894;2023-12-22T02:41:48;10;9;
70436;PMS5003;57877;39.750;-104.894;2023-12-22T02:44:14;11;10;
70436;PMS5003;57877;39.750;-104.894;2023-12-22T02:46:39;7;7;
70436;PMS5003;57877;39.750;-104.894;2023-12-22T02:49:05;6;5;
70436;PMS5003;57877;39.750;-104.894;2023-12-22T02:51:30;10;8;
70436;PMS5003;57877;39.750;-104.894;2023-12-22T02:53:55;7;7;
70436;PMS5003;57877;39.750;-104.894;2023-12-22T02:56:20;6;6;
70436;PMS5003;57877;39.750;-104.894;2023-12-22T02:58:45;6;5;
70436;PMS5003;57877;39.750;-104.894;2023-12-22T03:01:10;4;3;
70436;PMS5003;57877;39.750;-104.894;2023-12-22T03:03:35;4;4;
70436;PMS5003;57877;39.750;-104.894;2023-12-22T03:06:01;7;7;
70436;PMS5003;57877;39.750;-104.894;2023-12-22T03:08:27;9;9;
70436;PMS5003;57877;39.750;-104.894;2023-12-22T03:10:52;8;8;
70436;PMS5003;57877;39.750;-104.894;2023-12-22T03:13:17;6;6;
70436;PMS5003;57877;39.750;-104.894;2023-12-22T03:15:42;7;6;
70436;PMS5003;57877;39.750;-104.894;2023-12-22T03:18:07;5;5;
70436;PMS5003;57877;39.750;-104.894;2023-12-22T03:20:32;8;8;
70436;PMS5003;57877;39.750;-104.894;2023-12-22T03:22:57;6;6;
70436;PMS5003;57877;39.750;-104.894;2023-12-22T03:25:22;5;5;
70436;PMS5003;57877;39.750;-104.894;2023-12-22T03:27:47;9;7;
70436;PMS5003;57877;39.750;-104.894;2023-12-22T03:30:13;8;8;
70436;PMS5003;57877;39.750;-104.894;2023-12-22T03:32:37;6;5;
70436;PMS5003;57877;39.750;-104.894;2023-12-22T03:35:03;5;5;
70436;PMS5003;57877;39.750;-104.894;2023-12-22T03:37:28;5;5;
70436;PMS5003;57877;39.750;-104.894;2023-12-22T03:39:53;5;5;
70436;PMS5003;57877;39.750;-104.894;2023-12-22T03:42:18;5;5;
70436;PMS5003;57877;39.750;-104.894;2023-12-22T03:44:43;5;3;
70436;PMS5003;57877;39.750;-104.894;2023-12-22T03:47:08;5;5;
70436;PMS5003;57877;39.750;-104.894;2023-12-22T03:49:33;3;3;
70436;PMS5003;57877;39.750;-104.894;2023-12-22T03:51:58;3;2;
70436;PMS5003;57877;39.750;-104.894;2023-12-22T03:54:23;2;2;
70436;PMS5003;57877;39.750;-104.894;2023-12-22T03:56:48;5;4;
70436;PMS5003;57877;39.750;-104.894;2023-12-22T03:59:13;3;3;
70436;PMS5003;57877;39.750;-104.894;2023-12-22T04:01:38;3;3;
70436;PMS5003;57877;39.750;-104.894;2023-12-22T04:04:03;2;2;
70436;PMS5003;57877;39.750;-104.894;2023-12-22T04:06:28;3;3;
70436;PMS5003;57877;39.750;-104.894;2023-12-22T04:08:53;3;3;
70436;PMS5003;57877;39.750;-104.894;2023-12-22T04:11:18;3;3;
70436;PMS5003;57877;39.750;-104.894;2023-12-22T04:13:43;4;4;
70436;PMS5003;57877;39.750;-104.894;2023-12-22T04:16:08;4;3;
70436;PMS5003;57877;39.750;-104.894;2023-12-22T04:18:33;4;4;
70436;PMS5003;57877;39.750;-104.894;2023-12-22T04:20:59;4;4;
70436;PMS5003;57877;39.750;-104.894;2023-12-22T04:23:24;5;5;
70436;PMS5003;57877;39.750;-104.894;2023-12-22T04:25:49;7;6;
70436;PMS5003;57877;39.750;-104.894;2023-12-22T04:28:14;6;5;
70436;PMS5003;57877;39.750;-104.894;2023-12-22T04:30:39;6;6;
70436;PMS5003;57877;39.750;-104.894;2023-12-22T04:33:04;5;5;
70436;PMS5003;57877;39.750;-104.894;2023-12-22T04:35:29;7;4;
70436;PMS5003;57877;39.750;-104.894;2023-12-22T04:37:54;5;5;
70436;PMS5003;57877;39.750;-104.894;2023-12-22T04:40:19;3;3;
70436;PMS5003;57877;39.750;-104.894;2023-12-22T04:42:44;4;4;
70436;PMS5003;57877;39.750;-104.894;2023-12-22T04:45:09;3;3;
70436;PMS5003;57877;39.750;-104.894;2023-12-22T04:47:34;5;5;
70436;PMS5003;57877;39.750;-104.894;2023-12-22T04:49:59;4;4;
70436;PMS5003;57877;39.750;-104.894;2023-12-22T04:52:24;5;4;
70436;PMS5003;57877;39.750;-104.894;2023-12-22T04:54:49;3;3;
70436;PMS5003;57877;39.750;-104.894;2023-12-22T04:57:15;3;3;
70436;PMS5003;57877;39.750;-104.894;2023-12-22T04:59:40;4;3;
70436;PMS5003;57877;39.750;-104.894;2023-12-22T05:02:05;5;5;
70436;PMS5003;57877;39.750;-104.894;2023-12-22T05:04:30;3;3;
70436;PMS5003;57877;39.750;-104.894;2023-12-22T05:06:55;4;4;
70436;PMS5003;57877;39.750;-104.894;2023-12-22T05:09:20;4;4;
70436;PMS5003;57877;39.750;-104.894;2023-12-22T05:11:45;2;2;
70436;PMS5003;57877;39.750;-104.894;2023-12-22T05:14:10;6;6;
70436;PMS5003;57877;39.750;-104.894;2023-12-22T05:16:35;5;5;
70436;PMS5003;57877;39.750;-104.894;2023-12-22T05:19:00;4;2;
70436;PMS5003;57877;39.750;-104.894;2023-12-22T05:21:25;3;2;
70436;PMS5003;57877;39.750;-104.894;2023-12-22T05:23:50;1;1;
70436;PMS5003;57877;39.750;-104.894;2023-12-22T05:26:17;4;3;
70436;PMS5003;57877;39.750;-104.894;2023-12-22T05:28:40;3;2;
70436;PMS5003;57877;39.750;-104.894;2023-12-22T05:31:06;4;4;
70436;PMS5003;57877;39.750;-104.894;2023-12-22T05:33:31;5;4;
70436;PMS5003;57877;39.750;-104.894;2023-12-22T05:35:56;2;2;
70436;PMS5003;57877;39.750;-104.894;2023-12-22T05:38:21;5;5;
70436;PMS5003;57877;39.750;-104.894;2023-12-22T05:40:46;5;5;
70436;PMS5003;57877;39.750;-104.894;2023-12-22T05:43:11;3;3;
70436;PMS5003;57877;39.750;-104.894;2023-12-22T05:45:36;4;4;
70436;PMS5003;57877;39.750;-104.894;2023-12-22T05:48:01;5;4;
70436;PMS5003;57877;39.750;-104.894;2023-12-22T05:50:26;3;2;
70436;PMS5003;57877;39.750;-104.894;2023-12-22T05:52:51;2;1;
70436;PMS5003;57877;39.750;-104.894;2023-12-22T05:55:16;4;3;
70436;PMS5003;57877;39.750;-104.894;2023-12-22T05:57:41;1;1;
70436;PMS5003;57877;39.750;-104.894;2023-12-22T06:00:07;0;0;
70436;PMS5003;57877;39.750;-104.894;2023-12-22T06:02:32;2;2;
70436;PMS5003;57877;39.750;-104.894;2023-12-22T06:04:57;2;1;
70436;PMS5003;57877;39.750;-104.894;2023-12-22T06:07:22;3;3;
70436;PMS5003;57877;39.750;-104.894;2023-12-22T06:09:47;2;2;
70436;PMS5003;57877;39.750;-104.894;2023-12-22T06:12:12;2;2;
70436;PMS5003;57877;39.750;-104.894;2023-12-22T06:14:37;2;2;
70436;PMS5003;57877;39.750;-104.894;2023-12-22T06:17:02;6;6;
70436;PMS5003;57877;39.750;-104.894;2023-12-22T06:19:27;6;5;
70436;PMS5003;57877;39.750;-104.894;2023-12-22T06:21:52;5;5;
70436;PMS5003;57877;39.750;-104.894;2023-12-22T06:24:18;4;3;
70436;PMS5003;57877;39.750;-104.894;2023-12-22T06:26:43;1;1;
70436;PMS5003;57877;39.750;-104.894;2023-12-22T06:29:08;3;3;
70436;PMS5003;57877;39.750;-104.894;2023-12-22T06:31:33;3;3;
70436;PMS5003;57877;39.750;-104.894;2023-12-22T06:33:58;3;3;
70436;PMS5003;57877;39.750;-104.894;2023-12-22T06:36:24;1;1;
70436;PMS5003;57877;39.750;-104.894;2023-12-22T06:38:48;0;0;
70436;PMS5003;57877;39.750;-104.894;2023-12-22T06:43:38;0;0;
70436;PMS5003;57877;39.750;-104.894;2023-12-22T06:46:03;4;3;
70436;PMS5003;57877;39.750;-104.894;2023-12-22T06:48:29;0;0;
70436;PMS5003;57877;39.750;-104.894;2023-12-22T06:50:54;7;7;
70436;PMS5003;57877;39.750;-104.894;2023-12-22T06:53:19;1;0;
70436;PMS5003;57877;39.750;-104.894;2023-12-22T06:55:46;2;2;
70436;PMS5003;57877;39.750;-104.894;2023-12-22T06:58:11;4;4;
70436;PMS5003;57877;39.750;-104.894;2023-12-22T07:00:36;0;0;
70436;PMS5003;57877;39.750;-104.894;2023-12-22T07:03:01;1;1;
70436;PMS5003;57877;39.750;-104.894;2023-12-22T07:07:51;3;3;
70436;PMS5003;57877;39.750;-104.894;2023-12-22T07:10:16;5;5;
70436;PMS5003;57877;39.750;-104.894;2023-12-22T07:12:41;5;4;
70436;PMS5003;57877;39.750;-104.894;2023-12-22T07:15:06;1;1;
70436;PMS5003;57877;39.750;-104.894;2023-12-22T07:17:31;1;0;
70436;PMS5003;57877;39.750;-104.894;2023-12-22T07:19:56;0;0;
70436;PMS5003;57877;39.750;-104.894;2023-12-22T07:22:22;0;0;
70436;PMS5003;57877;39.750;-104.894;2023-12-22T07:24:47;0;0;
70436;PMS5003;57877;39.750;-104.894;2023-12-22T07:27:12;0;0;
70436;PMS5003;57877;39.750;-104.894;2023-12-22T07:29:37;0;0;
70436;PMS5003;57877;39.750;-104.894;2023-12-22T07:32:02;0;0;
70436;PMS5003;57877;39.750;-104.894;2023-12-22T07:34:27;0;0;
70436;PMS5003;57877;39.750;-104.894;2023-12-22T07:36:52;0;0;
70436;PMS5003;57877;39.750;-104.894;2023-12-22T07:39:17;0;0;
70436;PMS5003;57877;39.750;-104.894;2023-12-22T07:41:42;0;0;
70436;PMS5003;57877;39.750;-104.894;2023-12-22T07:44:07;0;0;
70436;PMS5003;57877;39.750;-104.894;2023-12-22T07:46:32;0;0;
70436;PMS5003;57877;39.750;-104.894;2023-12-22T07:48:58;0;0;
70436;PMS5003;57877;39.750;-104.894;2023-12-22T07:51:23;0;0;
70436;PMS5003;57877;39.750;-104.894;2023-12-22T07:53:48;0;0;
70436;PMS5003;57877;39.750;-104.894;2023-12-22T07:56:13;0;0;
70436;PMS5003;57877;39.750;-104.894;2023-12-22T07:58:38;0;0;
70436;PMS5003;57877;39.750;-104.894;2023-12-22T08:01:03;0;0;
70436;PMS5003;57877;39.750;-104.894;2023-12-22T08:03:28;0;0;
70436;PMS5003;57877;39.750;-104.894;2023-12-22T08:05:53;0;0;
70436;PMS5003;57877;39.750;-104.894;2023-12-22T08:08:18;0;0;
70436;PMS5003;57877;39.750;-104.894;2023-12-22T08:10:43;0;0;
70436;PMS5003;57877;39.750;-104.894;2023-12-22T08:13:08;0;0;
70436;PMS5003;57877;39.750;-104.894;2023-12-22T08:15:33;0;0;
70436;PMS5003;57877;39.750;-104.894;2023-12-22T08:17:58;0;0;
70436;PMS5003;57877;39.750;-104.894;2023-12-22T08:20:24;0;0;
70436;PMS5003;57877;39.750;-104.894;2023-12-22T08:22:50;0;0;
70436;PMS5003;57877;39.750;-104.894;2023-12-22T08:25:14;0;0;
70436;PMS5003;57877;39.750;-104.894;2023-12-22T08:27:39;0;0;
70436;PMS5003;57877;39.750;-104.894;2023-12-22T08:30:04;0;0;
70436;PMS5003;57877;39.750;-104.894;2023-12-22T08:32:29;0;0;
70436;PMS5003;57877;39.750;-104.894;2023-12-22T08:34:54;0;0;
70436;PMS5003;57877;39.750;-104.894;2023-12-22T08:37:19;0;0;
70436;PMS5003;57877;39.750;-104.894;2023-12-22T08:39:44;0;0;
70436;PMS5003;57877;39.750;-104.894;2023-12-22T08:42:09;0;0;
70436;PMS5003;57877;39.750;-104.894;2023-12-22T08:44:34;0;0;
70436;PMS5003;57877;39.750;-104.894;2023-12-22T08:46:59;0;0;
70436;PMS5003;57877;39.750;-104.894;2023-12-22T08:49:25;0;0;
70436;PMS5003;57877;39.750;-104.894;2023-12-22T08:51:49;1;0;
70436;PMS5003;57877;39.750;-104.894;2023-12-22T08:54:14;0;0;
70436;PMS5003;57877;39.750;-104.894;2023-12-22T08:56:40;0;0;
70436;PMS5003;57877;39.750;-104.894;2023-12-22T08:59:05;0;0;
70436;PMS5003;57877;39.750;-104.894;2023-12-22T09:01:30;0;0;
70436;PMS5003;57877;39.750;-104.894;2023-12-22T09:03:55;0;0;
70436;PMS5003;57877;39.750;-104.894;2023-12-22T09:06:20;0;0;
70436;PMS5003;57877;39.750;-104.894;2023-12-22T09:08:45;0;0;
70436;PMS5003;57877;39.750;-104.894;2023-12-22T09:11:11;1;0;
70436;PMS5003;57877;39.750;-104.894;2023-12-22T09:13:35;0;0;
70436;PMS5003;57877;39.750;-104.894;2023-12-22T09:16:00;0;0;
70436;PMS5003;57877;39.750;-104.894;2023-12-22T09:18:25;0;0;
70436;PMS5003;57877;39.750;-104.894;2023-12-22T09:20:50;0;0;
70436;PMS5003;57877;39.750;-104.894;2023-12-22T09:23:16;0;0;
70436;PMS5003;57877;39.750;-104.894;2023-12-22T09:25:41;0;0;
70436;PMS5003;57877;39.750;-104.894;2023-12-22T09:28:06;0;0;
70436;PMS5003;57877;39.750;-104.894;2023-12-22T09:30:31;0;0;
70436;PMS5003;57877;39.750;-104.894;2023-12-22T09:32:56;0;0;
70436;PMS5003;57877;39.750;-104.894;2023-12-22T09:35:21;0;0;
70436;PMS5003;57877;39.750;-104.894;2023-12-22T09:37:46;0;0;
70436;PMS5003;57877;39.750;-104.894;2023-12-22T09:40:11;0;0;
70436;PMS5003;57877;39.750;-104.894;2023-12-22T09:42:37;0;0;
70436;PMS5003;57877;39.750;-104.894;2023-12-22T09:45:01;0;0;
70436;PMS5003;57877;39.750;-104.894;2023-12-22T09:47:26;0;0;
70436;PMS5003;57877;39.750;-104.894;2023-12-22T09:49:53;0;0;
70436;PMS5003;57877;39.750;-104.894;2023-12-22T09:52:17;0;0;
70436;PMS5003;57877;39.750;-104.894;2023-12-22T09:54:42;0;0;
70436;PMS5003;57877;39.750;-104.894;2023-12-22T09:57:07;0;0;
70436;PMS5003;57877;39.750;-104.894;2023-12-22T09:59:32;0;0;
70436;PMS5003;57877;39.750;-104.894;2023-12-22T10:01:57;0;0;
70436;PMS5003;57877;39.750;-104.894;2023-12-22T10:04:22;0;0;
70436;PMS5003;57877;39.750;-104.894;2023-12-22T10:06:47;0;0;
70436;PMS5003;57877;39.750;-104.894;2023-12-22T10:09:12;0;0;
70436;PMS5003;57877;39.750;-104.894;2023-12-22T10:11:37;0;0;
70436;PMS5003;57877;39.750;-104.894;2023-12-22T10:14:03;0;0;
70436;PMS5003;57877;39.750;-104.894;2023-12-22T10:16:28;0;0;
70436;PMS5003;57877;39.750;-104.894;2023-12-22T10:18:53;0;0;
70436;PMS5003;57877;39.750;-104.894;2023-12-22T10:21:18;0;0;
70436;PMS5003;57877;39.750;-104.894;2023-12-22T10:23:43;0;0;
70436;PMS5003;57877;39.750;-104.894;2023-12-22T10:26:10;0;0;
70436;PMS5003;57877;39.750;-104.894;2023-12-22T10:28:33;0;0;
70436;PMS5003;57877;39.750;-104.894;2023-12-22T10:30:59;0;0;
70436;PMS5003;57877;39.750;-104.894;2023-12-22T10:33:24;0;0;
70436;PMS5003;57877;39.750;-104.894;2023-12-22T10:35:49;0;0;
70436;PMS5003;57877;39.750;-104.894;2023-12-22T10:38:14;0;0;
70436;PMS5003;57877;39.750;-104.894;2023-12-22T10:40:39;0;0;
70436;PMS5003;57877;39.750;-104.894;2023-12-22T10:43:04;0;0;
70436;PMS5003;57877;39.750;-104.894;2023-12-22T10:45:29;0;0;
70436;PMS5003;57877;39.750;-104.894;2023-12-22T10:47:54;0;0;
70436;PMS5003;57877;39.750;-104.894;2023-12-22T10:50:19;0;0;
70436;PMS5003;57877;39.750;-104.894;2023-12-22T10:52:48;0;0;
70436;PMS5003;57877;39.750;-104.894;2023-12-22T10:55:09;0;0;
70436;PMS5003;57877;39.750;-104.894;2023-12-22T10:57:34;0;0;
70436;PMS5003;57877;39.750;-104.894;2023-12-22T11:00:00;0;0;
70436;PMS5003;57877;39.750;-104.894;2023-12-22T11:02:26;0;0;
70436;PMS5003;57877;39.750;-104.894;2023-12-22T11:04:52;0;0;
70436;PMS5003;57877;39.750;-104.894;2023-12-22T11:07:15;0;0;
70436;PMS5003;57877;39.750;-104.894;2023-12-22T11:09:40;0;0;
70436;PMS5003;57877;39.750;-104.894;2023-12-22T11:12:05;0;0;
70436;PMS5003;57877;39.750;-104.894;2023-12-22T11:14:31;0;0;
70436;PMS5003;57877;39.750;-104.894;2023-12-22T11:16:55;0;0;
70436;PMS5003;57877;39.750;-104.894;2023-12-22T11:19:20;2;2;
70436;PMS5003;57877;39.750;-104.894;2023-12-22T11:21:45;8;7;
70436;PMS5003;57877;39.750;-104.894;2023-12-22T11:24:11;4;4;
70436;PMS5003;57877;39.750;-104.894;2023-12-22T11:26:36;0;0;
70436;PMS5003;57877;39.750;-104.894;2023-12-22T11:29:01;0;0;
70436;PMS5003;57877;39.750;-104.894;2023-12-22T11:31:26;0;0;
70436;PMS5003;57877;39.750;-104.894;2023-12-22T11:33:51;0;0;
70436;PMS5003;57877;39.750;-104.894;2023-12-22T11:36:17;3;3;
70436;PMS5003;57877;39.750;-104.894;2023-12-22T11:38:42;0;0;
70436;PMS5003;57877;39.750;-104.894;2023-12-22T11:41:06;1;1;
70436;PMS5003;57877;39.750;-104.894;2023-12-22T11:43:31;0;0;
70436;PMS5003;57877;39.750;-104.894;2023-12-22T11:46:00;1;1;
70436;PMS5003;57877;39.750;-104.894;2023-12-22T11:48:22;0;0;
70436;PMS5003;57877;39.750;-104.894;2023-12-22T11:50:47;1;0;
70436;PMS5003;57877;39.750;-104.894;2023-12-22T12:02:54;0;0;
70436;PMS5003;57877;39.750;-104.894;2023-12-22T12:05:17;0;0;
70436;PMS5003;57877;39.750;-104.894;2023-12-22T12:07:43;0;0;
70436;PMS5003;57877;39.750;-104.894;2023-12-22T12:10:08;0;0;
70436;PMS5003;57877;39.750;-104.894;2023-12-22T12:12:33;0;0;
70436;PMS5003;57877;39.750;-104.894;2023-12-22T12:14:58;0;0;
70436;PMS5003;57877;39.750;-104.894;2023-12-22T12:17:23;0;0;
70436;PMS5003;57877;39.750;-104.894;2023-12-22T12:19:48;0;0;
70436;PMS5003;57877;39.750;-104.894;2023-12-22T12:22:13;0;0;
70436;PMS5003;57877;39.750;-104.894;2023-12-22T12:24:38;0;0;
70436;PMS5003;57877;39.750;-104.894;2023-12-22T12:27:03;0;0;
70436;PMS5003;57877;39.750;-104.894;2023-12-22T12:29:28;0;0;
70436;PMS5003;57877;39.750;-104.894;2023-12-22T12:31:53;2;0;
70436;PMS5003;57877;39.750;-104.894;2023-12-22T12:34:18;4;3;
70436;PMS5003;57877;39.750;-104.894;2023-12-22T12:36:45;0;0;
70436;PMS5003;57877;39.750;-104.894;2023-12-22T12:39:09;0;0;
70436;PMS5003;57877;39.750;-104.894;2023-12-22T12:41:36;0;0;
70436;PMS5003;57877;39.750;-104.894;2023-12-22T12:43:59;0;0;
70436;PMS5003;57877;39.750;-104.894;2023-12-22T12:46:24;0;0;
70436;PMS5003;57877;39.750;-104.894;2023-12-22T12:48:49;0;0;
70436;PMS5003;57877;39.750;-104.894;2023-12-22T12:51:14;0;0;
70436;PMS5003;57877;39.750;-104.894;2023-12-22T12:53:39;0;0;
70436;PMS5003;57877;39.750;-104.894;2023-12-22T12:56:04;0;0;
70436;PMS5003;57877;39.750;-104.894;2023-12-22T12:58:29;0;0;
70436;PMS5003;57877;39.750;-104.894;2023-12-22T13:03:20;0;0;
70436;PMS5003;57877;39.750;-104.894;2023-12-22T13:05:45;0;0;
70436;PMS5003;57877;39.750;-104.894;2023-12-22T13:08:12;0;0;
70436;PMS5003;57877;39.750;-104.894;2023-12-22T13:10:35;0;0;
70436;PMS5003;57877;39.750;-104.894;2023-12-22T13:13:00;0;0;
70436;PMS5003;57877;39.750;-104.894;2023-12-22T13:15:25;0;0;
70436;PMS5003;57877;39.750;-104.894;2023-12-22T13:17:50;0;0;
70436;PMS5003;57877;39.750;-104.894;2023-12-22T13:20:15;0;0;
70436;PMS5003;57877;39.750;-104.894;2023-12-22T13:22:40;0;0;
70436;PMS5003;57877;39.750;-104.894;2023-12-22T13:25:06;0;0;
70436;PMS5003;57877;39.750;-104.894;2023-12-22T13:27:31;0;0;
70436;PMS5003;57877;39.750;-104.894;2023-12-22T13:29:56;0;0;
70436;PMS5003;57877;39.750;-104.894;2023-12-22T13:32:21;0;0;
70436;PMS5003;57877;39.750;-104.894;2023-12-22T13:34:47;0;0;
70436;PMS5003;57877;39.750;-104.894;2023-12-22T13:37:11;0;0;
70436;PMS5003;57877;39.750;-104.894;2023-12-22T13:39:36;0;0;
70436;PMS5003;57877;39.750;-104.894;2023-12-22T13:42:01;0;0;
70436;PMS5003;57877;39.750;-104.894;2023-12-22T13:44:26;0;0;
70436;PMS5003;57877;39.750;-104.894;2023-12-22T13:46:52;0;0;
70436;PMS5003;57877;39.750;-104.894;2023-12-22T13:49:17;0;0;
70436;PMS5003;57877;39.750;-104.894;2023-12-22T13:51:43;0;0;
70436;PMS5003;57877;39.750;-104.894;2023-12-22T13:54:07;0;0;
70436;PMS5003;57877;39.750;-104.894;2023-12-22T13:56:33;0;0;
70436;PMS5003;57877;39.750;-104.894;2023-12-22T13:58:57;0;0;
70436;PMS5003;57877;39.750;-104.894;2023-12-22T14:01:22;0;0;
70436;PMS5003;57877;39.750;-104.894;2023-12-22T14:03:47;0;0;
70436;PMS5003;57877;39.750;-104.894;2023-12-22T14:06:12;0;0;
70436;PMS5003;57877;39.750;-104.894;2023-12-22T14:08:39;0;0;
70436;PMS5003;57877;39.750;-104.894;2023-12-22T14:11:03;0;0;
70436;PMS5003;57877;39.750;-104.894;2023-12-22T14:13:28;0;0;
70436;PMS5003;57877;39.750;-104.894;2023-12-22T14:15:53;0;0;
70436;PMS5003;57877;39.750;-104.894;2023-12-22T14:18:18;0;0;
70436;PMS5003;57877;39.750;-104.894;2023-12-22T14:20:43;0;0;
70436;PMS5003;57877;39.750;-104.894;2023-12-22T14:23:08;0;0;
70436;PMS5003;57877;39.750;-104.894;2023-12-22T14:25:33;0;0;
70436;PMS5003;57877;39.750;-104.894;2023-12-22T14:27:58;0;0;
70436;PMS5003;57877;39.750;-104.894;2023-12-22T14:30:23;0;0;
70436;PMS5003;57877;39.750;-104.894;2023-12-22T14:32:48;0;0;
70436;PMS5003;57877;39.750;-104.894;2023-12-22T14:35:13;0;0;
70436;PMS5003;57877;39.750;-104.894;2023-12-22T14:37:38;0;0;
70436;PMS5003;57877;39.750;-104.894;2023-12-22T14:40:04;0;0;
70436;PMS5003;57877;39.750;-104.894;2023-12-22T14:42:29;0;0;
70436;PMS5003;57877;39.750;-104.894;2023-12-22T14:44:54;0;0;
70436;PMS5003;57877;39.750;-104.894;2023-12-22T14:47:19;0;0;
70436;PMS5003;57877;39.750;-104.894;2023-12-22T14:49:44;0;0;
70436;PMS5003;57877;39.750;-104.894;2023-12-22T14:52:09;0;0;
70436;PMS5003;57877;39.750;-104.894;2023-12-22T14:54:34;0;0;
70436;PMS5003;57877;39.750;-104.894;2023-12-22T14:56:59;0;0;
70436;PMS5003;57877;39.750;-104.894;2023-12-22T14:59:24;0;0;
70436;PMS5003;57877;39.750;-104.894;2023-12-22T15:01:49;0;0;
70436;PMS5003;57877;39.750;-104.894;2023-12-22T15:04:14;0;0;
70436;PMS5003;57877;39.750;-104.894;2023-12-22T15:06:40;0;0;
70436;PMS5003;57877;39.750;-104.894;2023-12-22T15:09:05;0;0;
70436;PMS5003;57877;39.750;-104.894;2023-12-22T15:11:30;0;0;
70436;PMS5003;57877;39.750;-104.894;2023-12-22T15:13:55;0;0;
70436;PMS5003;57877;39.750;-104.894;2023-12-22T15:16:20;0;0;
70436;PMS5003;57877;39.750;-104.894;2023-12-22T15:18:45;0;0;
70436;PMS5003;57877;39.750;-104.894;2023-12-22T15:23:35;0;0;
70436;PMS5003;57877;39.750;-104.894;2023-12-22T15:26:00;0;0;
70436;PMS5003;57877;39.750;-104.894;2023-12-22T15:28:25;0;0;
70436;PMS5003;57877;39.750;-104.894;2023-12-22T15:30:50;0;0;
70436;PMS5003;57877;39.750;-104.894;2023-12-22T15:33:15;0;0;
70436;PMS5003;57877;39.750;-104.894;2023-12-22T15:35:41;0;0;
70436;PMS5003;57877;39.750;-104.894;2023-12-22T15:38:06;0;0;
70436;PMS5003;57877;39.750;-104.894;2023-12-22T15:40:31;0;0;
70436;PMS5003;57877;39.750;-104.894;2023-12-22T15:42:56;0;0;
70436;PMS5003;57877;39.750;-104.894;2023-12-22T15:45:21;0;0;
70436;PMS5003;57877;39.750;-104.894;2023-12-22T15:47:46;0;0;
70436;PMS5003;57877;39.750;-104.894;2023-12-22T15:50:11;0;0;
70436;PMS5003;57877;39.750;-104.894;2023-12-22T15:52:36;0;0;
70436;PMS5003;57877;39.750;-104.894;2023-12-22T15:55:01;0;0;
70436;PMS5003;57877;39.750;-104.894;2023-12-22T15:57:26;0;0;
70436;PMS5003;57877;39.750;-104.894;2023-12-22T15:59:51;0;0;
70436;PMS5003;57877;39.750;-104.894;2023-12-22T16:02:16;0;0;
70436;PMS5003;57877;39.750;-104.894;2023-12-22T16:04:41;0;0;
70436;PMS5003;57877;39.750;-104.894;2023-12-22T16:07:06;0;0;